Reedsburg, WI

8:01 PM CDT on August 28, 2015 (GMT -0500)
KWIREEDS5 | | Change Station
CLOSE
Current Station
Personal Weather Station
Location: Reedsburg, WI
Elevation: 908 ft
Nearby Weather Stations

Elev 908 ft 43.54 °N, 90.02 °W | Updated 11 seconds ago

Rain
Rain
59.8 °F
Feels Like 59.8 °F
N
0.0
Wind Variable Wind from NNE
Gusts 1.0 mph

Today
High -- | Low -- °F
--% Chance of Precip.
Yesterday
High -- | Low -- °F
Precip. -- in
6:19 AM 7:42 PM
Waxing Gibbous, 99% visible
Pressure 30.06 in
Visibility 10.0 miles
Clouds Scattered Clouds 1700 ft
Scattered Clouds 3500 ft
Overcast 7500 ft
Dew Point 59 °F
Humidity 96%
Rainfall 0.62 in
Snow Depth Not available.
UV 0.0 out of 12
Pollen 3.70 out of 12
Air Quality Not available.
Flu Activity Not available.
METAR KC35 290055Z AUTO 04006KT 10SM -RA SCT017 SCT035 OVC075 15/15 A3006 RMK AO2 P0004 T01500145
Pressure 30.06 in
Visibility 10.0 miles
Clouds Scattered Clouds 1700 ft
Scattered Clouds 3500 ft
Overcast 7500 ft
Dew Point 59 °F
Humidity 96%
Rainfall 0.62 in
Snow Depth Not available.
UV 0.0 out of 12
Pollen 3.70 out of 12
Air Quality Not available.
Flu Activity Not available.
METAR KC35 290055Z AUTO 04006KT 10SM -RA SCT017 SCT035 OVC075 15/15 A3006 RMK AO2 P0004 T01500145

10-Day Weather Forecast

×

Almanac

Astronomy

Aug. 28, 2015 Rise Set
Actual Time
Civil Twilight
Nautical Twilight
Astronomical Twilight
Moon
Length of Visible Light
Length of Day
Tomorrow will be .
, % of the Moon is Illuminated

Today's Extremes

State Highs State Lows

Community

WunderPhotos

Upload Photos

1,850,557 photos uploaded!

WunderBlogs® & News

Nearby

Air Quality

  Air Quality AQ Index Pollutant
Not available.

Snow Depth

Station Depth Elevation

Earthquake Activity

City Distance Mag. Time & Date
Minimum magnitude displayed is 2.5.

Coastal Water Temperatures

Place Temperature

Stations

Nearby Weather Stations

Station Location Temp. Windchill Dew Point Humidity Wind Precip. Elev Updated Type